Time;durP1;ratioP1;P1;durP2;ratioP2;P2;SDS_P1;SDS_P2;PMS_P1;PMS_P2;Temp;Humidity;BMP_temperature;BMP_pressure;BME280_temperature;BME280_humidity;BME280_pressure;Samples;Min_cycle;Max_cycle;Signal;HPM_P1;HPM_P2
2021/01/23 00:02:08;;;;;;;9.45;5.97;;;;;;;;;;4997889;28;20389;-70
2021/01/23 00:04:34;;;;;;;7.07;5.25;;;;;;;;;;5031406;28;20069;-70
2021/01/23 00:07:00;;;;;;;10.85;5.30;;;;;;;;;;5030081;28;20459;-70
2021/01/23 00:09:26;;;;;;;9.93;6.35;;;;;;;;;;5013741;28;20180;-70
2021/01/23 00:11:52;;;;;;;10.15;6.40;;;;;;;;;;5030133;28;20086;-70
2021/01/23 00:14:18;;;;;;;11.25;6.50;;;;;;;;;;5031314;28;20111;-70
2021/01/23 00:16:44;;;;;;;9.52;6.85;;;;;;;;;;5025603;28;20050;-70
2021/01/23 00:19:11;;;;;;;10.23;6.88;;;;;;;;;;5026815;28;20137;-70
2021/01/23 00:21:37;;;;;;;11.27;7.00;;;;;;;;;;5018707;28;20053;-70
2021/01/23 00:24:04;;;;;;;13.98;7.55;;;;;;;;;;5007720;28;20559;-69
2021/01/23 00:26:30;;;;;;;12.98;7.25;;;;;;;;;;5008213;28;20050;-70
2021/01/23 00:28:56;;;;;;;14.45;6.70;;;;;;;;;;5015358;28;20496;-69
2021/01/23 00:31:23;;;;;;;13.07;7.57;;;;;;;;;;4986300;28;20550;-69
2021/01/23 00:33:49;;;;;;;11.05;7.07;;;;;;;;;;5026026;28;20571;-70
2021/01/23 00:36:16;;;;;;;10.25;6.72;;;;;;;;;;5009941;28;20096;-70
2021/01/23 00:38:42;;;;;;;10.75;7.38;;;;;;;;;;5013418;28;20095;-70
2021/01/23 00:41:09;;;;;;;11.98;6.78;;;;;;;;;;5025737;28;20096;-70
2021/01/23 00:43:35;;;;;;;12.15;7.05;;;;;;;;;;5027545;28;20049;-70
2021/01/23 00:46:02;;;;;;;9.15;5.82;;;;;;;;;;5019365;28;20053;-69
2021/01/23 00:48:29;;;;;;;17.50;7.10;;;;;;;;;;5022654;28;20440;-69
2021/01/23 00:50:55;;;;;;;11.23;7.00;;;;;;;;;;5019886;28;20108;-70
2021/01/23 00:53:21;;;;;;;13.35;7.45;;;;;;;;;;5026740;28;20045;-70
2021/01/23 00:55:47;;;;;;;12.50;7.65;;;;;;;;;;5025228;28;20053;-70
2021/01/23 00:58:14;;;;;;;16.85;8.52;;;;;;;;;;5030073;28;20049;-69
2021/01/23 01:00:40;;;;;;;15.80;8.88;;;;;;;;;;5024717;28;20053;-70
2021/01/23 01:03:06;;;;;;;14.45;8.57;;;;;;;;;;5032365;28;20053;-70
2021/01/23 01:05:32;;;;;;;12.93;8.27;;;;;;;;;;5013053;28;20504;-70
2021/01/23 01:07:58;;;;;;;15.88;8.50;;;;;;;;;;5031388;28;20045;-69
2021/01/23 01:10:24;;;;;;;14.23;7.90;;;;;;;;;;5020084;28;20053;-69
2021/01/23 01:12:50;;;;;;;9.70;5.38;;;;;;;;;;5028724;28;20088;-69
2021/01/23 01:15:16;;;;;;;11.13;6.32;;;;;;;;;;5022855;28;20570;-69
2021/01/23 01:17:43;;;;;;;7.90;4.55;;;;;;;;;;5019266;28;20042;-69
2021/01/23 01:20:09;;;;;;;9.35;4.45;;;;;;;;;;5020935;28;20142;-69
2021/01/23 01:22:35;;;;;;;11.25;3.80;;;;;;;;;;5022526;28;20046;-69
2021/01/23 01:25:02;;;;;;;7.32;3.58;;;;;;;;;;5023177;28;20100;-69
2021/01/23 01:27:29;;;;;;;6.80;3.00;;;;;;;;;;5021616;28;20057;-68
2021/01/23 01:29:55;;;;;;;4.18;2.92;;;;;;;;;;5027411;28;20092;-69
2021/01/23 01:32:21;;;;;;;6.40;3.22;;;;;;;;;;5027839;28;20046;-70
2021/01/23 01:34:47;;;;;;;6.22;3.15;;;;;;;;;;5020023;28;20092;-69
2021/01/23 01:37:13;;;;;;;5.38;3.45;;;;;;;;;;5027199;28;20123;-70
2021/01/23 01:39:40;;;;;;;8.18;3.50;;;;;;;;;;5026852;28;20049;-70
2021/01/23 01:42:06;;;;;;;7.97;3.92;;;;;;;;;;5028617;28;20046;-69
2021/01/23 01:44:32;;;;;;;10.50;4.53;;;;;;;;;;5009958;28;20444;-70
2021/01/23 01:46:59;;;;;;;10.05;5.30;;;;;;;;;;5012007;28;20112;-70
2021/01/23 01:49:27;;;;;;;11.13;6.35;;;;;;;;;;5014009;28;20416;-70
2021/01/23 01:51:56;;;;;;;9.93;6.07;;;;;;;;;;5005990;28;20080;-71
2021/01/23 01:54:23;;;;;;;16.77;9.07;;;;;;;;;;5012083;28;20049;-71
2021/01/23 01:56:50;;;;;;;23.15;10.52;;;;;;;;;;5028373;28;20417;-71
2021/01/23 01:59:16;;;;;;;23.85;12.02;;;;;;;;;;5030844;28;20100;-71
2021/01/23 02:01:42;;;;;;;22.92;11.75;;;;;;;;;;5022733;28;20095;-71
2021/01/23 02:04:34;;;;;;;26.55;13.55;;;;;;;;;;5013942;28;20137;-71
2021/01/23 02:07:27;;;;;;;31.60;14.98;;;;;;;;;;4994199;28;20085;-71
2021/01/23 02:10:02;;;;;;;31.08;14.82;;;;;;;;;;4995367;28;20096;-72
2021/01/23 02:12:54;;;;;;;30.75;15.60;;;;;;;;;;5013755;28;20050;-72
2021/01/23 02:15:21;;;;;;;31.23;14.52;;;;;;;;;;5025985;28;20085;-71
2021/01/23 02:17:57;;;;;;;29.67;15.05;;;;;;;;;;5028278;28;20471;-71
2021/01/23 02:20:48;;;;;;;27.15;12.65;;;;;;;;;;4996950;28;20520;-71
2021/01/23 02:23:26;;;;;;;21.77;10.75;;;;;;;;;;5012556;28;20058;-70
2021/01/23 02:25:52;;;;;;;25.00;10.90;;;;;;;;;;5011766;28;20108;-71
2021/01/23 02:28:21;;;;;;;21.92;10.57;;;;;;;;;;5015539;28;20045;-70
2021/01/23 02:31:02;;;;;;;17.15;9.57;;;;;;;;;;5015783;28;20459;-69
2021/01/23 02:33:30;;;;;;;15.77;9.23;;;;;;;;;;5016174;28;20057;-69
2021/01/23 02:36:00;;;;;;;16.33;9.48;;;;;;;;;;5013901;28;20049;-69
2021/01/23 02:38:26;;;;;;;15.23;8.32;;;;;;;;;;4996081;28;20481;-69
2021/01/23 02:40:52;;;;;;;15.98;8.32;;;;;;;;;;5014033;28;20463;-69
2021/01/23 02:43:21;;;;;;;16.20;9.10;;;;;;;;;;5031835;28;20107;-69
2021/01/23 02:45:48;;;;;;;14.80;8.05;;;;;;;;;;5032716;28;20652;-69
2021/01/23 02:48:17;;;;;;;14.57;8.07;;;;;;;;;;5031640;28;20076;-69
2021/01/23 02:50:44;;;;;;;15.18;7.57;;;;;;;;;;5015867;28;20064;-70
2021/01/23 02:53:18;;;;;;;11.25;6.97;;;;;;;;;;5015392;28;20049;-69
2021/01/23 02:55:46;;;;;;;10.35;6.63;;;;;;;;;;5015221;28;20050;-69
2021/01/23 02:58:12;;;;;;;10.23;6.75;;;;;;;;;;5015158;28;20077;-69
2021/01/23 03:00:39;;;;;;;12.20;6.07;;;;;;;;;;5031654;28;20045;-69
2021/01/23 03:03:05;;;;;;;10.40;6.63;;;;;;;;;;4981966;28;20104;-69
2021/01/23 03:05:33;;;;;;;10.18;5.75;;;;;;;;;;5024979;28;20508;-69
2021/01/23 03:07:59;;;;;;;9.48;5.88;;;;;;;;;;5031191;28;20049;-69
2021/01/23 03:10:52;;;;;;;8.50;5.35;;;;;;;;;;5015026;28;20111;-69
2021/01/23 03:13:18;;;;;;;9.45;5.30;;;;;;;;;;5029360;28;20092;-69
2021/01/23 03:15:44;;;;;;;10.00;6.18;;;;;;;;;;5031942;28;20057;-70
2021/01/23 03:18:10;;;;;;;9.25;5.75;;;;;;;;;;5016641;28;20049;-69
2021/01/23 03:20:36;;;;;;;11.32;6.03;;;;;;;;;;5013143;28;20500;-69
2021/01/23 03:23:03;;;;;;;10.38;6.22;;;;;;;;;;5014842;28;20056;-69
2021/01/23 03:25:29;;;;;;;9.65;6.00;;;;;;;;;;5030378;28;20080;-70
2021/01/23 03:27:56;;;;;;;10.60;6.63;;;;;;;;;;5014503;28;20054;-70
2021/01/23 03:30:23;;;;;;;10.88;6.65;;;;;;;;;;5003571;28;20463;-69
2021/01/23 03:32:49;;;;;;;10.05;6.30;;;;;;;;;;5009706;28;20049;-70
2021/01/23 03:35:16;;;;;;;7.78;5.70;;;;;;;;;;4997287;28;20049;-70
2021/01/23 03:37:43;;;;;;;7.85;5.50;;;;;;;;;;5030671;28;20056;-69
2021/01/23 03:40:09;;;;;;;9.68;6.40;;;;;;;;;;5030625;28;20415;-70
2021/01/23 03:42:36;;;;;;;10.00;6.78;;;;;;;;;;5025616;28;20100;-69
2021/01/23 03:45:03;;;;;;;12.00;6.90;;;;;;;;;;4994708;28;20054;-70
2021/01/23 03:47:29;;;;;;;13.00;6.63;;;;;;;;;;4994276;28;20049;-70
2021/01/23 03:49:55;;;;;;;12.27;6.15;;;;;;;;;;5010990;28;20054;-70
2021/01/23 03:52:22;;;;;;;9.57;6.22;;;;;;;;;;5021310;28;20103;-70
2021/01/23 03:54:48;;;;;;;10.45;5.93;;;;;;;;;;5030352;28;20049;-71
2021/01/23 03:57:14;;;;;;;12.20;6.57;;;;;;;;;;5030742;28;20081;-71
2021/01/23 03:59:40;;;;;;;11.25;7.03;;;;;;;;;;5030425;28;20463;-71
2021/01/23 04:02:06;;;;;;;10.50;6.18;;;;;;;;;;5010875;28;20504;-71
2021/01/23 04:04:33;;;;;;;13.73;6.70;;;;;;;;;;5010644;28;20042;-71
2021/01/23 04:06:59;;;;;;;9.75;6.10;;;;;;;;;;4993752;28;20058;-71
2021/01/23 04:09:25;;;;;;;11.32;6.85;;;;;;;;;;5011766;28;20132;-71
2021/01/23 04:11:52;;;;;;;15.80;6.68;;;;;;;;;;4994568;28;20050;-70
2021/01/23 04:14:18;;;;;;;13.85;6.35;;;;;;;;;;4996614;28;20089;-71
2021/01/23 04:16:48;;;;;;;13.93;6.65;;;;;;;;;;5030039;28;20103;-71
2021/01/23 04:19:15;;;;;;;11.93;6.03;;;;;;;;;;5013925;28;20053;-71
2021/01/23 04:21:41;;;;;;;12.40;6.75;;;;;;;;;;5014101;28;20172;-71
2021/01/23 04:24:08;;;;;;;13.95;7.40;;;;;;;;;;5029534;28;20493;-71
2021/01/23 04:26:35;;;;;;;10.98;6.85;;;;;;;;;;5013320;28;20058;-72
2021/01/23 04:29:03;;;;;;;18.00;7.63;;;;;;;;;;5029769;28;20077;-71
2021/01/23 04:31:29;;;;;;;15.35;7.38;;;;;;;;;;4998268;28;20049;-71
2021/01/23 04:33:55;;;;;;;14.38;7.43;;;;;;;;;;5014541;28;20119;-71
2021/01/23 04:36:21;;;;;;;14.05;7.40;;;;;;;;;;5033481;28;20520;-71
2021/01/23 04:38:47;;;;;;;15.77;7.53;;;;;;;;;;5035281;28;20085;-71
2021/01/23 04:41:13;;;;;;;15.77;6.60;;;;;;;;;;5010887;28;20132;-71
2021/01/23 04:43:40;;;;;;;16.48;7.90;;;;;;;;;;4998049;28;20123;-71
2021/01/23 04:46:06;;;;;;;13.70;7.50;;;;;;;;;;4997894;28;20127;-71
2021/01/23 04:48:32;;;;;;;18.67;7.55;;;;;;;;;;5029029;28;20095;-72
2021/01/23 04:50:58;;;;;;;13.45;6.72;;;;;;;;;;5017619;28;20115;-71
2021/01/23 04:53:25;;;;;;;12.27;6.60;;;;;;;;;;5004396;28;20508;-71
2021/01/23 04:55:51;;;;;;;24.35;8.20;;;;;;;;;;5017839;28;20049;-71
2021/01/23 04:58:17;;;;;;;13.63;6.95;;;;;;;;;;5034736;28;20103;-72
2021/01/23 05:00:43;;;;;;;12.18;6.43;;;;;;;;;;5032113;28;20075;-72
2021/01/23 05:03:09;;;;;;;16.67;7.78;;;;;;;;;;5032692;28;20056;-71
2021/01/23 05:05:35;;;;;;;14.20;7.10;;;;;;;;;;5032733;28;20060;-71
2021/01/23 05:08:12;;;;;;;15.60;7.40;;;;;;;;;;5017343;28;20052;-71
2021/01/23 05:10:40;;;;;;;11.40;6.68;;;;;;;;;;5033817;28;20053;-71
2021/01/23 05:13:16;;;;;;;13.52;6.78;;;;;;;;;;5007405;28;20414;-71
2021/01/23 05:15:43;;;;;;;14.95;6.78;;;;;;;;;;5020500;28;20054;-71
2021/01/23 05:18:10;;;;;;;11.80;5.97;;;;;;;;;;5024542;28;20049;-72
2021/01/23 05:20:45;;;;;;;10.63;5.90;;;;;;;;;;5033657;28;20049;-72
2021/01/23 05:23:18;;;;;;;13.10;6.03;;;;;;;;;;5034576;28;20076;-72
2021/01/23 05:25:48;;;;;;;8.98;4.85;;;;;;;;;;5021425;28;20088;-72
2021/01/23 05:28:24;;;;;;;10.02;5.40;;;;;;;;;;5000492;28;20045;-72
2021/01/23 05:30:53;;;;;;;7.95;5.07;;;;;;;;;;5018385;28;20053;-72
2021/01/23 05:33:27;;;;;;;8.65;5.13;;;;;;;;;;5033234;28;20085;-72
2021/01/23 05:35:59;;;;;;;8.43;5.07;;;;;;;;;;5020398;28;20108;-72
2021/01/23 05:38:28;;;;;;;9.55;5.30;;;;;;;;;;5014428;28;20049;-74
2021/01/23 05:41:04;;;;;;;9.90;5.35;;;;;;;;;;4998203;28;20111;-72
2021/01/23 05:43:43;;;;;;;10.38;6.07;;;;;;;;;;5013233;28;20050;-72
2021/01/23 05:46:19;;;;;;;9.60;5.35;;;;;;;;;;5028309;28;20504;-71
2021/01/23 05:48:49;;;;;;;8.52;4.88;;;;;;;;;;5000888;28;20552;-73
2021/01/23 05:51:17;;;;;;;13.77;5.55;;;;;;;;;;5013193;28;20061;-72
2021/01/23 05:53:44;;;;;;;7.72;4.47;;;;;;;;;;5028718;28;20081;-72
2021/01/23 05:56:10;;;;;;;13.57;5.47;;;;;;;;;;5032170;28;20095;-73
2021/01/23 05:58:37;;;;;;;10.50;5.78;;;;;;;;;;5032646;28;20045;-73
2021/01/23 06:01:08;;;;;;;10.93;5.15;;;;;;;;;;5026994;28;20049;-72
2021/01/23 06:03:36;;;;;;;9.35;5.10;;;;;;;;;;5032846;28;20046;-72
2021/01/23 06:06:03;;;;;;;10.38;5.57;;;;;;;;;;4999322;28;20096;-72
2021/01/23 06:08:38;;;;;;;8.25;5.07;;;;;;;;;;5013671;28;20085;-72
2021/01/23 06:11:04;;;;;;;9.95;5.18;;;;;;;;;;5013932;28;20061;-71
2021/01/23 06:13:42;;;;;;;10.60;5.20;;;;;;;;;;4997096;28;20116;-72
2021/01/23 06:16:33;;;;;;;10.40;4.72;;;;;;;;;;5012048;28;20501;-73
2021/01/23 06:19:20;;;;;;;11.77;4.78;;;;;;;;;;5013872;28;20687;-72
2021/01/23 06:21:46;;;;;;;9.95;5.10;;;;;;;;;;5003267;28;20050;-73
2021/01/23 06:24:16;;;;;;;7.85;4.28;;;;;;;;;;5013696;28;20600;-72
2021/01/23 06:26:54;;;;;;;8.50;4.68;;;;;;;;;;5000103;28;20480;-72
2021/01/23 06:29:37;;;;;;;8.75;4.63;;;;;;;;;;5021927;28;20045;-72
2021/01/23 06:32:12;;;;;;;13.35;5.00;;;;;;;;;;5016969;28;20107;-72
2021/01/23 06:34:48;;;;;;;10.50;5.40;;;;;;;;;;5032052;28;20535;-72
2021/01/23 06:37:34;;;;;;;10.18;5.65;;;;;;;;;;5032406;28;20495;-71
2021/01/23 06:40:04;;;;;;;8.52;5.30;;;;;;;;;;5015769;28;20531;-72
2021/01/23 06:42:32;;;;;;;9.77;5.53;;;;;;;;;;5031983;28;20092;-74
2021/01/23 06:45:14;;;;;;;14.57;6.05;;;;;;;;;;5011885;28;20057;-72
2021/01/23 06:47:42;;;;;;;11.17;5.37;;;;;;;;;;5016358;28;20095;-72
2021/01/23 06:50:09;;;;;;;10.15;5.88;;;;;;;;;;5031877;28;20056;-72
2021/01/23 06:52:50;;;;;;;9.48;5.20;;;;;;;;;;5030937;28;20053;-74
2021/01/23 06:55:37;;;;;;;8.10;4.80;;;;;;;;;;5023217;28;20050;-72
2021/01/23 06:58:03;;;;;;;8.23;5.18;;;;;;;;;;5022193;28;20096;-72
2021/01/23 07:00:35;;;;;;;11.13;6.32;;;;;;;;;;4995685;28;20058;-72
2021/01/23 07:03:13;;;;;;;10.07;5.97;;;;;;;;;;5011980;28;20109;-73
2021/01/23 07:05:56;;;;;;;9.40;5.20;;;;;;;;;;5020539;28;20085;-72
2021/01/23 07:08:30;;;;;;;9.00;5.22;;;;;;;;;;5015883;28;20049;-72
2021/01/23 07:11:14;;;;;;;8.82;4.80;;;;;;;;;;5031798;28;20054;-72
2021/01/23 07:14:05;;;;;;;10.20;5.25;;;;;;;;;;5015152;28;20054;-72
2021/01/23 07:16:38;;;;;;;6.25;4.05;;;;;;;;;;5000028;28;20050;-74
2021/01/23 07:19:08;;;;;;;6.72;4.32;;;;;;;;;;4995491;28;20050;-72
2021/01/23 07:21:37;;;;;;;6.72;4.68;;;;;;;;;;5011633;28;20057;-72
2021/01/23 07:24:03;;;;;;;10.57;4.70;;;;;;;;;;4995896;28;20077;-72
2021/01/23 07:26:31;;;;;;;11.18;6.15;;;;;;;;;;5026421;28;20080;-72
2021/01/23 07:28:58;;;;;;;14.02;8.57;;;;;;;;;;5032991;28;20175;-72
2021/01/23 07:31:29;;;;;;;14.07;8.05;;;;;;;;;;4999233;28;20084;-72
2021/01/23 07:33:58;;;;;;;15.35;7.72;;;;;;;;;;5011345;28;20081;-72
2021/01/23 07:36:35;;;;;;;11.27;6.32;;;;;;;;;;5010693;28;20098;-74
2021/01/23 07:39:08;;;;;;;13.32;7.30;;;;;;;;;;4995123;28;20125;-72
2021/01/23 07:41:35;;;;;;;16.73;7.20;;;;;;;;;;4995590;28;20572;-72
2021/01/23 07:44:05;;;;;;;11.68;6.60;;;;;;;;;;5011231;28;20084;-74
2021/01/23 07:46:33;;;;;;;13.63;6.40;;;;;;;;;;4991038;28;20061;-72
2021/01/23 07:48:59;;;;;;;12.40;6.57;;;;;;;;;;5012763;28;20439;-72
2021/01/23 07:51:28;;;;;;;10.60;5.90;;;;;;;;;;5012533;28;20053;-72
2021/01/23 07:54:03;;;;;;;11.35;5.95;;;;;;;;;;4999350;28;20705;-72
2021/01/23 07:56:29;;;;;;;11.10;5.88;;;;;;;;;;5024759;28;20142;-72
2021/01/23 07:58:56;;;;;;;15.68;6.25;;;;;;;;;;5020896;28;20095;-72
2021/01/23 08:01:22;;;;;;;10.57;6.25;;;;;;;;;;5019674;28;20501;-73
2021/01/23 08:03:48;;;;;;;13.98;6.82;;;;;;;;;;5008624;28;20058;-72
2021/01/23 08:06:24;;;;;;;16.40;6.35;;;;;;;;;;5021329;28;20096;-72
2021/01/23 08:08:51;;;;;;;12.32;6.60;;;;;;;;;;5028426;28;20088;-72
2021/01/23 08:11:38;;;;;;;14.30;7.13;;;;;;;;;;5015939;28;20562;-73
2021/01/23 08:14:14;;;;;;;11.43;6.90;;;;;;;;;;5004186;28;20107;-73
2021/01/23 08:16:50;;;;;;;10.93;6.28;;;;;;;;;;5011211;28;20492;-73
2021/01/23 08:19:17;;;;;;;12.43;6.70;;;;;;;;;;4995911;28;20125;-74
2021/01/23 08:21:43;;;;;;;10.65;6.63;;;;;;;;;;5015155;28;20054;-74
2021/01/23 08:24:31;;;;;;;12.98;6.95;;;;;;;;;;5003653;28;20042;-73
2021/01/23 08:27:09;;;;;;;11.95;6.53;;;;;;;;;;5009296;28;20566;-74
2021/01/23 08:29:41;;;;;;;10.57;6.32;;;;;;;;;;5007269;28;20057;-72
2021/01/23 08:32:07;;;;;;;9.95;5.88;;;;;;;;;;5023421;28;20050;-75
2021/01/23 08:34:34;;;;;;;7.30;4.90;;;;;;;;;;5012938;28;20053;-72
2021/01/23 08:37:00;;;;;;;7.80;5.22;;;;;;;;;;5022225;28;20061;-72
2021/01/23 08:39:26;;;;;;;7.82;6.03;;;;;;;;;;5008120;28;20054;-71
2021/01/23 08:41:52;;;;;;;10.95;5.90;;;;;;;;;;4997296;28;20089;-71
2021/01/23 08:44:18;;;;;;;9.63;5.75;;;;;;;;;;5015970;28;20076;-72
2021/01/23 08:46:44;;;;;;;8.35;5.55;;;;;;;;;;5010344;28;20108;-71
2021/01/23 08:49:10;;;;;;;9.13;5.60;;;;;;;;;;5023543;28;20046;-71
2021/01/23 08:51:37;;;;;;;6.82;5.10;;;;;;;;;;5012494;28;20050;-72
2021/01/23 08:54:04;;;;;;;7.35;4.72;;;;;;;;;;5008204;28;20050;-71
2021/01/23 08:56:30;;;;;;;7.93;5.47;;;;;;;;;;5007508;28;20050;-71
2021/01/23 08:58:56;;;;;;;11.00;5.70;;;;;;;;;;4992876;28;20046;-71
2021/01/23 09:01:22;;;;;;;8.25;6.05;;;;;;;;;;5003825;28;20120;-70
2021/01/23 09:03:49;;;;;;;8.90;5.53;;;;;;;;;;5019101;28;20049;-70
2021/01/23 09:06:15;;;;;;;8.70;5.72;;;;;;;;;;5018480;28;20049;-70
2021/01/23 09:08:41;;;;;;;9.30;6.25;;;;;;;;;;5018251;28;20091;-70
2021/01/23 09:11:07;;;;;;;7.20;5.40;;;;;;;;;;5015087;28;20081;-70
2021/01/23 09:13:36;;;;;;;8.13;5.55;;;;;;;;;;5018229;28;20103;-70
2021/01/23 09:16:07;;;;;;;7.80;5.65;;;;;;;;;;5019228;28;20270;-71
2021/01/23 09:18:36;;;;;;;8.95;5.05;;;;;;;;;;5020448;28;20042;-70
2021/01/23 09:21:02;;;;;;;10.15;4.43;;;;;;;;;;5022894;28;20071;-70
2021/01/23 09:23:29;;;;;;;8.02;5.38;;;;;;;;;;5025011;28;20475;-70
2021/01/23 09:25:59;;;;;;;13.00;7.30;;;;;;;;;;5022689;28;20057;-70
2021/01/23 09:28:27;;;;;;;14.70;7.70;;;;;;;;;;5021627;28;20053;-71
2021/01/23 09:30:53;;;;;;;12.15;7.03;;;;;;;;;;5021751;28;20081;-69
2021/01/23 09:33:23;;;;;;;11.15;7.43;;;;;;;;;;5028315;28;20248;-69
2021/01/23 09:35:49;;;;;;;8.75;6.38;;;;;;;;;;5022506;28;20053;-71
2021/01/23 09:38:15;;;;;;;7.47;5.45;;;;;;;;;;5022040;28;20528;-70
2021/01/23 09:40:46;;;;;;;6.50;4.10;;;;;;;;;;5027639;28;20492;-71
2021/01/23 09:43:15;;;;;;;6.70;4.10;;;;;;;;;;5020729;28;20585;-70
2021/01/23 09:45:41;;;;;;;9.48;5.68;;;;;;;;;;5023209;28;20057;-71
2021/01/23 09:48:07;;;;;;;17.20;7.72;;;;;;;;;;5021102;28;20045;-71
2021/01/23 09:50:41;;;;;;;14.00;7.18;;;;;;;;;;5022422;28;20042;-70
2021/01/23 09:53:07;;;;;;;13.60;7.07;;;;;;;;;;5029943;28;20045;-72
2021/01/23 09:55:33;;;;;;;8.07;5.57;;;;;;;;;;5019959;28;20054;-71
2021/01/23 09:58:00;;;;;;;7.65;5.10;;;;;;;;;;5025061;28;20500;-70
2021/01/23 10:00:29;;;;;;;6.07;3.90;;;;;;;;;;5019764;28;20107;-74
2021/01/23 10:02:55;;;;;;;5.18;3.58;;;;;;;;;;5028202;28;20061;-74
2021/01/23 10:05:22;;;;;;;4.82;4.15;;;;;;;;;;5019135;28;20081;-76
2021/01/23 10:07:48;;;;;;;5.22;3.90;;;;;;;;;;5028496;28;20108;-76
2021/01/23 10:10:15;;;;;;;5.85;4.10;;;;;;;;;;5020309;28;20061;-73
2021/01/23 10:12:41;;;;;;;5.70;3.50;;;;;;;;;;5021737;28;20049;-74
2021/01/23 10:15:08;;;;;;;5.75;3.75;;;;;;;;;;5017078;28;20065;-74
2021/01/23 10:17:34;;;;;;;5.25;3.80;;;;;;;;;;5013455;28;20046;-75
2021/01/23 10:20:01;;;;;;;6.35;4.22;;;;;;;;;;5020395;28;20081;-75
2021/01/23 10:22:28;;;;;;;6.63;4.72;;;;;;;;;;5028237;28;20054;-75
2021/01/23 10:24:55;;;;;;;6.40;3.95;;;;;;;;;;5020687;28;20057;-73
2021/01/23 10:27:24;;;;;;;5.13;3.05;;;;;;;;;;5025805;28;20056;-75
2021/01/23 10:29:53;;;;;;;4.10;3.08;;;;;;;;;;5008903;28;20080;-74
2021/01/23 10:32:20;;;;;;;7.95;3.70;;;;;;;;;;5020070;28;20054;-73
2021/01/23 10:34:46;;;;;;;4.70;2.85;;;;;;;;;;5027795;28;20728;-73
2021/01/23 10:37:13;;;;;;;5.97;2.55;;;;;;;;;;5029296;28;20049;-75
2021/01/23 10:39:39;;;;;;;3.60;2.60;;;;;;;;;;5026789;28;20048;-76
2021/01/23 10:42:06;;;;;;;3.97;2.83;;;;;;;;;;5018163;28;20053;-74
2021/01/23 10:44:39;;;;;;;4.57;2.67;;;;;;;;;;5028160;28;20056;-74
2021/01/23 10:47:08;;;;;;;;;;;;;;;;;;5009564;28;20049;-75
2021/01/23 10:49:35;;;;;;;2.90;2.38;;;;;;;;;;5017370;28;20324;-76
2021/01/23 10:52:02;;;;;;;3.58;2.85;;;;;;;;;;5001812;28;20515;-76
2021/01/23 10:54:28;;;;;;;4.00;2.47;;;;;;;;;;5011425;28;20053;-76
2021/01/23 10:56:55;;;;;;;3.53;2.50;;;;;;;;;;5021973;28;20057;-76
2021/01/23 10:59:21;;;;;;;3.25;2.50;;;;;;;;;;5024358;28;20099;-76
2021/01/23 11:01:48;;;;;;;11.65;3.05;;;;;;;;;;5009802;28;20056;-77
2021/01/23 11:04:15;;;;;;;4.50;2.70;;;;;;;;;;5011948;28;20053;-76
2021/01/23 11:06:42;;;;;;;3.58;2.17;;;;;;;;;;5019210;28;20067;-76
2021/01/23 11:09:08;;;;;;;3.75;2.22;;;;;;;;;;5023429;28;20095;-76
2021/01/23 11:11:34;;;;;;;3.90;2.67;;;;;;;;;;5019184;28;20100;-75
2021/01/23 11:14:00;;;;;;;4.20;2.65;;;;;;;;;;5016129;28;20072;-76
2021/01/23 11:16:26;;;;;;;3.60;2.63;;;;;;;;;;5025674;28;20053;-77
2021/01/23 11:18:54;;;;;;;3.63;1.77;;;;;;;;;;5021393;28;20076;-80
2021/01/23 11:21:22;;;;;;;2.40;2.20;;;;;;;;;;5022902;28;20065;-75
2021/01/23 11:23:48;;;;;;;3.67;2.15;;;;;;;;;;5003535;28;20574;-75
2021/01/23 11:26:14;;;;;;;4.10;2.22;;;;;;;;;;5017170;28;20184;-75
2021/01/23 11:28:40;;;;;;;3.25;2.60;;;;;;;;;;5009727;28;20042;-75
2021/01/23 11:31:06;;;;;;;3.13;2.55;;;;;;;;;;5018943;28;20054;-75
2021/01/23 11:33:33;;;;;;;3.42;2.92;;;;;;;;;;5016326;28;20049;-75
2021/01/23 11:35:59;;;;;;;3.25;2.08;;;;;;;;;;5019686;28;20045;-74
2021/01/23 11:38:25;;;;;;;4.93;3.00;;;;;;;;;;5016728;28;20100;-75
2021/01/23 11:40:51;;;;;;;2.38;2.17;;;;;;;;;;5020278;28;20072;-74
2021/01/23 11:43:17;;;;;;;3.30;2.15;;;;;;;;;;5024596;28;20050;-75
2021/01/23 11:45:43;;;;;;;3.55;2.63;;;;;;;;;;5017407;28;20073;-75
2021/01/23 11:48:10;;;;;;;2.60;2.17;;;;;;;;;;5022192;28;20098;-75
2021/01/23 11:50:38;;;;;;;3.72;2.22;;;;;;;;;;5018378;28;20049;-75
2021/01/23 11:53:05;;;;;;;2.20;2.00;;;;;;;;;;5009974;28;20053;-75
2021/01/23 11:55:31;;;;;;;3.60;2.67;;;;;;;;;;4990597;28;20104;-75
2021/01/23 11:57:58;;;;;;;3.22;2.45;;;;;;;;;;5008979;28;20052;-75
2021/01/23 12:00:24;;;;;;;5.13;2.10;;;;;;;;;;5009454;28;20116;-75
2021/01/23 12:02:51;;;;;;;3.47;2.20;;;;;;;;;;5008944;28;20340;-75
2021/01/23 12:05:20;;;;;;;2.92;2.20;;;;;;;;;;5018461;28;20057;-74
2021/01/23 12:07:49;;;;;;;3.95;2.08;;;;;;;;;;5024801;28;20428;-73
2021/01/23 12:10:15;;;;;;;2.42;2.00;;;;;;;;;;5028144;28;20206;-74
2021/01/23 12:12:42;;;;;;;5.20;2.15;;;;;;;;;;5024978;28;20530;-74
2021/01/23 12:15:09;;;;;;;3.08;2.20;;;;;;;;;;5002394;28;20087;-74
2021/01/23 12:17:35;;;;;;;2.95;2.30;;;;;;;;;;5009180;28;20127;-73
2021/01/23 12:20:04;;;;;;;2.60;2.13;;;;;;;;;;5027069;28;20472;-74
2021/01/23 12:22:31;;;;;;;2.92;1.75;;;;;;;;;;5012296;28;20096;-74
2021/01/23 12:24:57;;;;;;;3.25;1.80;;;;;;;;;;5021759;28;20542;-74
2021/01/23 12:27:23;;;;;;;3.08;1.80;;;;;;;;;;5007986;28;20053;-75
2021/01/23 12:29:49;;;;;;;1.88;1.67;;;;;;;;;;5018859;28;20041;-73
2021/01/23 12:32:15;;;;;;;2.80;1.77;;;;;;;;;;5021941;28;20056;-73
2021/01/23 12:34:42;;;;;;;3.65;2.13;;;;;;;;;;5018436;28;20104;-72
2021/01/23 12:37:08;;;;;;;12.20;6.32;;;;;;;;;;5026890;28;20456;-72
2021/01/23 12:39:34;;;;;;;21.30;9.10;;;;;;;;;;5030223;28;20057;-74
2021/01/23 12:42:00;;;;;;;3.85;2.63;;;;;;;;;;5019811;28;20080;-73
2021/01/23 12:44:26;;;;;;;5.03;2.78;;;;;;;;;;5029954;28;20057;-73
2021/01/23 12:46:53;;;;;;;5.25;3.50;;;;;;;;;;4983302;28;20565;-71
2021/01/23 12:49:19;;;;;;;23.25;10.02;;;;;;;;;;5008857;28;20046;-71
2021/01/23 12:51:48;;;;;;;4.45;2.22;;;;;;;;;;5030709;28;20512;-71
2021/01/23 12:54:14;;;;;;;8.00;4.30;;;;;;;;;;5012201;28;20049;-70
2021/01/23 12:56:41;;;;;;;11.38;5.78;;;;;;;;;;5019800;28;20053;-71
2021/01/23 12:59:08;;;;;;;3.15;1.75;;;;;;;;;;5021308;28;20123;-69
2021/01/23 13:01:39;;;;;;;2.70;1.80;;;;;;;;;;5022179;28;20500;-72
2021/01/23 13:04:05;;;;;;;3.65;1.70;;;;;;;;;;5021557;28;20065;-70
2021/01/23 13:06:32;;;;;;;7.50;2.78;;;;;;;;;;5022158;28;20053;-70
2021/01/23 13:09:01;;;;;;;3.83;2.67;;;;;;;;;;5020075;28;20420;-70
2021/01/23 13:11:27;;;;;;;6.95;3.30;;;;;;;;;;5028458;28;20050;-72
2021/01/23 13:13:54;;;;;;;4.28;2.47;;;;;;;;;;5011884;28;20491;-70
2021/01/23 13:16:20;;;;;;;3.25;1.77;;;;;;;;;;5023844;28;20049;-71
2021/01/23 13:18:50;;;;;;;2.30;1.55;;;;;;;;;;5027835;28;20054;-73
2021/01/23 13:21:17;;;;;;;3.20;1.52;;;;;;;;;;5025863;28;20046;-71
2021/01/23 13:23:43;;;;;;;2.47;1.38;;;;;;;;;;5011225;28;20060;-71
2021/01/23 13:26:12;;;;;;;3.45;1.40;;;;;;;;;;5014086;28;20099;-72
2021/01/23 13:28:52;;;;;;;5.15;1.80;;;;;;;;;;5019115;28;20061;-70
2021/01/23 13:31:18;;;;;;;2.20;1.65;;;;;;;;;;5021483;28;20053;-72
2021/01/23 13:33:44;;;;;;;3.45;1.58;;;;;;;;;;5019729;28;20128;-70
2021/01/23 13:36:10;;;;;;;1.70;1.60;;;;;;;;;;5018752;28;20123;-71
2021/01/23 13:38:37;;;;;;;4.97;1.77;;;;;;;;;;5019955;28;20049;-72
2021/01/23 13:41:04;;;;;;;2.38;1.50;;;;;;;;;;5020022;28;20057;-69
2021/01/23 13:43:30;;;;;;;4.90;1.83;;;;;;;;;;5020763;28;20101;-70
2021/01/23 13:45:57;;;;;;;3.17;1.60;;;;;;;;;;5022538;28;20052;-71
2021/01/23 13:48:23;;;;;;;3.92;2.97;;;;;;;;;;5018361;28;20459;-72
2021/01/23 13:50:49;;;;;;;23.80;12.90;;;;;;;;;;5023447;28;20104;-73
2021/01/23 13:53:15;;;;;;;3.78;2.05;;;;;;;;;;5019553;28;20077;-73
2021/01/23 13:55:41;;;;;;;4.05;1.60;;;;;;;;;;5019870;28;20042;-71
2021/01/23 13:58:07;;;;;;;2.95;1.58;;;;;;;;;;5027957;28;20057;-73
2021/01/23 14:00:33;;;;;;;3.00;1.52;;;;;;;;;;5023453;28;20099;-71
2021/01/23 14:02:59;;;;;;;1.67;1.42;;;;;;;;;;5022572;28;20057;-71
2021/01/23 14:05:26;;;;;;;2.58;1.60;;;;;;;;;;5026998;28;20471;-71
2021/01/23 14:07:52;;;;;;;2.55;1.70;;;;;;;;;;5021598;28;20052;-72
2021/01/23 14:10:23;;;;;;;5.82;1.95;;;;;;;;;;5021498;28;20096;-72
2021/01/23 14:12:49;;;;;;;2.70;1.40;;;;;;;;;;5004988;28;20459;-73
2021/01/23 14:15:16;;;;;;;3.42;2.10;;;;;;;;;;5010595;28;20100;-71
2021/01/23 14:17:42;;;;;;;3.08;1.90;;;;;;;;;;5013589;28;20107;-72
2021/01/23 14:20:09;;;;;;;3.97;2.45;;;;;;;;;;5029142;28;20048;-74
2021/01/23 14:22:36;;;;;;;4.00;2.45;;;;;;;;;;5014511;28;20118;-71
2021/01/23 14:25:03;;;;;;;2.75;2.30;;;;;;;;;;5020286;28;20049;-72
2021/01/23 14:27:29;;;;;;;4.47;2.25;;;;;;;;;;5026009;28;20045;-72
2021/01/23 14:29:56;;;;;;;2.40;2.10;;;;;;;;;;4997451;28;20053;-70
2021/01/23 14:32:22;;;;;;;4.13;2.45;;;;;;;;;;5027901;28;20053;-75
2021/01/23 14:34:48;;;;;;;7.30;4.60;;;;;;;;;;5055926;28;20030;-72
2021/01/23 14:37:15;;;;;;;4.90;3.67;;;;;;;;;;5049705;28;20033;-71
2021/01/23 14:39:41;;;;;;;4.40;3.28;;;;;;;;;;5046769;28;20072;-73
2021/01/23 14:42:07;;;;;;;3.72;3.35;;;;;;;;;;5042093;28;20034;-70
2021/01/23 14:44:33;;;;;;;4.60;3.72;;;;;;;;;;5038555;28;20056;-70